LICJ/PMO METAR and TAF weather

Enter ICAO airport designator
Station Type Date Time Source
LICJ METAR 2021/03/04 20:50 UTC NOAA

LICJ 042050Z VRB01KT 9999 SCT060 14/08 Q1021


Station Type Date Time Source
LICJ Decoded METAR 2021/03/04 20:50 UTC NOAA

Palermo / Punta Raisi, Italy (LICJ) 38-11N 013-06E 21M
Mar 04, 2021 - 03:50 PM EST / 2021.03.04 2050 UTC
Wind: Variable at 1 MPH (1 KT):0
Visibility: greater than 7 mile(s):0
Sky conditions: partly cloudy
Temperature: 57 F (14 C)
Dew Point: 46 F (8 C)
Relative Humidity: 67%
Pressure (altimeter): 30.15 in. Hg (1021 hPa)
ob: LICJ 042050Z VRB01KT 9999 SCT060 14/08 Q1021
cycle: 21

Station Type Date Time Source
LICJ TAF 2021/03/04 18:21 UTC NOAA

TAF LICJ 041700Z 0418/0518 VRB06KT 9999 SCT050

Example: see airport list